createdAt,value
2022-10-17T00:00:55.841Z,9.88
2022-10-17T00:03:57.869Z,9.77
2022-10-17T00:07:00.570Z,10.65
2022-10-17T00:10:03.332Z,9.95
2022-10-17T00:13:06.477Z,10.13
2022-10-17T00:16:09.162Z,11.27
2022-10-17T00:19:11.329Z,12.40
2022-10-17T00:22:14.111Z,10.30
2022-10-17T00:25:16.519Z,9.68
2022-10-17T00:28:18.750Z,9.95
2022-10-17T00:31:23.419Z,10.65
2022-10-17T00:34:26.194Z,10.07
2022-10-17T00:37:28.517Z,11.23
2022-10-17T00:40:30.627Z,10.70
2022-10-17T00:43:51.197Z,10.07
2022-10-17T00:47:02.591Z,10.80
2022-10-17T00:50:07.072Z,10.50
2022-10-17T00:53:09.713Z,10.88
2022-10-17T00:56:15.802Z,9.30
2022-10-17T00:59:22.086Z,10.25
2022-10-17T01:02:24.295Z,10.80
2022-10-17T01:05:27.449Z,10.77
2022-10-17T01:08:30.654Z,11.45
2022-10-17T01:11:40.782Z,11.20
2022-10-17T01:15:02.379Z,10.93
2022-10-17T01:18:13.125Z,11.85
2022-10-17T01:21:48.361Z,10.45
2022-10-17T01:25:01.929Z,12.18
2022-10-17T01:32:30.792Z,11.40
2022-10-17T01:35:38.370Z,10.18
2022-10-17T01:38:49.065Z,11.07
2022-10-17T01:42:19.458Z,9.85
2022-10-17T01:45:25.798Z,10.65
2022-10-17T01:48:36.319Z,9.70
2022-10-17T01:51:43.540Z,11.82
2022-10-17T01:54:51.322Z,8.90
2022-10-17T01:57:58.039Z,10.25
2022-10-17T02:01:07.015Z,10.50
2022-10-17T02:04:11.466Z,10.57
2022-10-17T02:07:13.960Z,9.88
2022-10-17T02:10:26.157Z,10.18
2022-10-17T02:13:42.556Z,10.35
2022-10-17T02:17:00.301Z,10.35
2022-10-17T02:20:11.536Z,9.48
2022-10-17T02:23:30.643Z,8.10
2022-10-17T02:26:48.507Z,9.77
2022-10-17T02:30:01.244Z,8.40
2022-10-17T02:33:06.801Z,9.43
2022-10-17T02:36:17.979Z,9.80
2022-10-17T02:39:25.385Z,8.82
2022-10-17T02:42:30.330Z,8.27
2022-10-17T02:45:36.587Z,9.63
2022-10-17T02:48:48.571Z,9.10
2022-10-17T02:52:04.256Z,8.15
2022-10-17T02:55:18.093Z,8.30
2022-10-17T02:58:28.365Z,8.88
2022-10-17T03:01:31.315Z,9.27
2022-10-17T03:04:34.272Z,9.02
2022-10-17T03:07:39.438Z,9.30
2022-10-17T03:10:42.791Z,8.23
2022-10-17T03:13:47.608Z,9.20
2022-10-17T03:16:51.315Z,9.07
2022-10-17T03:19:54.640Z,8.77
2022-10-17T03:22:56.782Z,9.18
2022-10-17T03:25:58.875Z,8.70
2022-10-17T03:29:02.121Z,7.72
2022-10-17T03:32:05.479Z,8.52
2022-10-17T03:35:14.090Z,8.02
2022-10-17T03:38:19.331Z,8.05
2022-10-17T03:41:21.669Z,9.98
2022-10-17T03:44:24.029Z,9.57
2022-10-17T03:47:26.214Z,8.73
2022-10-17T03:50:28.531Z,8.60
2022-10-17T03:53:32.606Z,8.90
2022-10-17T03:56:34.720Z,8.05
2022-10-17T03:59:43.483Z,9.85
2022-10-17T04:02:50.209Z,10.95
2022-10-17T04:05:57.770Z,15.57
2022-10-17T04:09:00.146Z,15.55
2022-10-17T04:12:24.849Z,16.90
2022-10-17T04:15:27.364Z,17.35
2022-10-17T04:18:29.913Z,15.27
2022-10-17T04:21:32.219Z,17.17
2022-10-17T04:24:39.920Z,15.68
2022-10-17T04:27:49.525Z,18.30
2022-10-17T04:31:11.798Z,17.08
2022-10-17T04:34:34.552Z,16.40
2022-10-17T04:37:36.616Z,17.48
2022-10-17T04:40:45.070Z,15.18
2022-10-17T04:43:51.019Z,15.38
2022-10-17T04:46:56.039Z,12.20
2022-10-17T04:49:59.173Z,10.48
2022-10-17T04:53:01.936Z,11.40
2022-10-17T04:56:12.776Z,10.27
2022-10-17T04:59:15.210Z,10.00
2022-10-17T05:02:19.380Z,9.82
2022-10-17T05:05:22.302Z,9.10
2022-10-17T05:08:29.896Z,10.45
2022-10-17T05:11:32.656Z,10.88
2022-10-17T05:14:34.745Z,11.13
2022-10-17T05:17:37.017Z,11.93
2022-10-17T05:20:39.248Z,11.35
2022-10-17T05:23:42.075Z,11.60
2022-10-17T05:26:44.160Z,10.77
2022-10-17T05:29:47.510Z,11.43
2022-10-17T05:33:01.286Z,10.35
2022-10-17T05:36:03.728Z,10.93
2022-10-17T05:39:06.258Z,10.52
2022-10-17T05:42:09.857Z,9.75
2022-10-17T05:45:12.006Z,10.23
2022-10-17T05:48:14.423Z,10.25
2022-10-17T05:51:16.593Z,9.60
2022-10-17T05:54:18.953Z,10.90
2022-10-17T05:57:21.111Z,11.25
2022-10-17T06:00:23.387Z,11.00
2022-10-17T06:03:32.682Z,10.68
2022-10-17T06:06:40.363Z,13.02
2022-10-17T06:09:43.012Z,12.77
2022-10-17T06:12:46.286Z,7.95
2022-10-17T06:15:49.589Z,7.25
2022-10-17T06:18:51.773Z,6.57
2022-10-17T06:21:54.702Z,8.88
2022-10-17T06:24:58.503Z,8.00
2022-10-17T06:28:01.167Z,6.15
2022-10-17T06:31:11.661Z,6.18
2022-10-17T06:34:13.785Z,8.05
2022-10-17T06:37:16.418Z,5.88
2022-10-17T06:40:21.181Z,7.28
2022-10-17T06:43:27.866Z,7.00
2022-10-17T06:46:53.021Z,6.85
2022-10-17T06:49:56.530Z,7.32
2022-10-17T06:53:18.727Z,8.15
2022-10-17T06:56:52.861Z,7.38
2022-10-17T07:00:21.394Z,7.07
2022-10-17T07:03:27.073Z,10.27
2022-10-17T07:06:29.353Z,9.27
2022-10-17T07:09:35.874Z,9.80
2022-10-17T07:12:37.936Z,9.68
2022-10-17T07:15:40.102Z,9.27
2022-10-17T07:18:43.016Z,9.70
2022-10-17T07:21:45.222Z,9.35
2022-10-17T07:27:56.070Z,8.38
2022-10-17T07:31:07.127Z,8.65
2022-10-17T07:34:09.279Z,8.38
2022-10-17T07:37:12.047Z,8.57
2022-10-17T07:40:17.539Z,8.50
2022-10-17T07:43:19.754Z,7.63
2022-10-17T07:46:22.354Z,8.80
2022-10-17T07:49:25.142Z,8.15
2022-10-17T07:52:28.134Z,8.35
2022-10-17T07:55:31.259Z,8.15
2022-10-17T07:58:33.505Z,8.00
2022-10-17T08:01:35.687Z,9.02
2022-10-17T08:04:37.892Z,9.45
2022-10-17T08:07:41.481Z,9.25
2022-10-17T08:10:43.892Z,12.20
2022-10-17T08:13:46.010Z,9.55
2022-10-17T08:16:48.079Z,10.43
2022-10-17T08:19:50.165Z,8.18
2022-10-17T08:22:53.700Z,9.98
2022-10-17T08:25:59.966Z,8.93
2022-10-17T08:29:02.133Z,8.40
2022-10-17T08:32:07.649Z,7.50
2022-10-17T08:35:11.717Z,8.93
2022-10-17T08:38:14.654Z,7.88
2022-10-17T08:41:47.628Z,8.50
2022-10-17T08:45:15.919Z,7.78
2022-10-17T08:48:23.971Z,7.95
2022-10-17T08:51:32.644Z,6.40
2022-10-17T08:54:42.213Z,5.07
2022-10-17T08:57:44.718Z,4.95
2022-10-17T09:01:13.271Z,5.03
2022-10-17T09:04:44.536Z,5.23
2022-10-17T09:08:20.296Z,4.63
2022-10-17T09:11:45.474Z,4.03
2022-10-17T09:14:59.091Z,4.28
2022-10-17T09:18:13.452Z,3.10
2022-10-17T09:21:30.564Z,3.00
2022-10-17T09:24:42.483Z,3.80
2022-10-17T09:27:51.997Z,5.07
2022-10-17T09:31:13.278Z,3.85
2022-10-17T09:34:16.545Z,5.50
2022-10-17T09:37:19.929Z,3.70
2022-10-17T09:40:27.035Z,4.57
2022-10-17T09:43:30.443Z,4.50
2022-10-17T09:46:41.897Z,3.75
2022-10-17T09:49:47.084Z,3.25
2022-10-17T09:52:51.019Z,3.38
2022-10-17T09:56:03.193Z,4.07
2022-10-17T09:59:05.303Z,4.38
2022-10-17T10:02:13.262Z,4.68
2022-10-17T10:05:30.176Z,7.72
2022-10-17T10:08:38.031Z,3.97
2022-10-17T10:11:52.476Z,3.70
2022-10-17T10:14:55.547Z,4.38
2022-10-17T10:17:57.769Z,4.20
2022-10-17T10:21:10.487Z,3.45
2022-10-17T10:24:15.268Z,3.55
2022-10-17T10:27:18.867Z,2.92
2022-10-17T10:30:25.920Z,3.30
2022-10-17T10:33:30.717Z,3.30
2022-10-17T10:36:46.379Z,3.15
2022-10-17T10:39:54.806Z,3.28
2022-10-17T10:43:04.878Z,3.13
2022-10-17T10:46:37.008Z,2.35
2022-10-17T10:49:39.775Z,2.95
2022-10-17T10:53:02.728Z,2.10
2022-10-17T10:56:13.623Z,2.88
2022-10-17T10:59:42.868Z,3.00
2022-10-17T11:03:12.719Z,2.80
2022-10-17T11:06:25.262Z,2.80
2022-10-17T11:13:29.234Z,2.45
2022-10-17T11:17:00.001Z,2.78
2022-10-17T11:20:30.502Z,2.45
2022-10-17T11:23:56.525Z,2.72
2022-10-17T11:27:05.129Z,2.70
2022-10-17T11:30:12.110Z,2.70
2022-10-17T11:33:26.831Z,2.58
2022-10-17T11:36:32.992Z,2.33
2022-10-17T11:39:42.378Z,2.20
2022-10-17T11:43:15.742Z,1.80
2022-10-17T11:46:24.998Z,1.60
2022-10-17T11:49:51.561Z,2.22
2022-10-17T11:52:59.250Z,2.15
2022-10-17T11:56:02.952Z,2.15
2022-10-17T11:59:41.990Z,2.50
2022-10-17T12:02:52.170Z,2.45
2022-10-17T12:06:18.233Z,2.50
2022-10-17T12:09:42.606Z,2.22
2022-10-17T12:12:44.744Z,2.33
2022-10-17T12:15:51.338Z,2.13
2022-10-17T12:19:03.046Z,2.35
2022-10-17T12:22:28.864Z,1.75
2022-10-17T12:25:34.723Z,1.60
2022-10-17T12:28:48.175Z,2.28
2022-10-17T12:31:50.878Z,1.65
2022-10-17T12:34:55.654Z,1.80
2022-10-17T12:38:01.917Z,1.70
2022-10-17T12:41:05.216Z,1.70
2022-10-17T12:44:14.969Z,1.63
2022-10-17T12:47:38.326Z,1.58
2022-10-17T12:51:30.720Z,2.03
2022-10-17T12:54:24.483Z,2.05
2022-10-17T12:57:48.482Z,3.33
2022-10-17T13:04:22.155Z,1.63
2022-10-17T13:07:26.377Z,2.25
2022-10-17T13:10:31.729Z,2.15
2022-10-17T13:13:39.338Z,2.72
2022-10-17T13:16:52.205Z,1.65
2022-10-17T13:19:55.455Z,1.80
2022-10-17T13:22:58.650Z,2.05
2022-10-17T13:26:15.874Z,2.22
2022-10-17T13:29:46.522Z,1.40
2022-10-17T13:32:52.167Z,1.60
2022-10-17T13:36:00.508Z,1.67
2022-10-17T13:39:12.526Z,1.95
2022-10-17T13:42:30.366Z,2.38
2022-10-17T13:45:37.101Z,1.80
2022-10-17T13:48:39.594Z,1.80
2022-10-17T13:51:48.217Z,2.08
2022-10-17T13:54:51.697Z,2.53
2022-10-17T13:57:58.368Z,2.42
2022-10-17T14:01:01.171Z,1.98
2022-10-17T14:04:19.496Z,2.15
2022-10-17T14:07:46.132Z,3.33
2022-10-17T14:10:49.352Z,3.03
2022-10-17T14:13:59.110Z,2.30
2022-10-17T14:17:01.415Z,3.35
2022-10-17T14:23:38.467Z,3.63
2022-10-17T14:26:55.789Z,3.03
2022-10-17T14:30:04.220Z,2.65
2022-10-17T14:33:11.163Z,4.72
2022-10-17T14:36:14.557Z,7.10
2022-10-17T14:39:23.502Z,3.78
2022-10-17T14:42:26.268Z,3.22
2022-10-17T14:45:38.826Z,2.80
2022-10-17T14:48:43.296Z,3.15
2022-10-17T14:52:16.789Z,3.17
2022-10-17T14:55:25.606Z,3.83
2022-10-17T14:58:33.615Z,2.80
2022-10-17T15:01:36.132Z,3.67
2022-10-17T15:04:42.328Z,4.70
2022-10-17T15:07:46.962Z,4.85
2022-10-17T15:10:52.082Z,4.47
2022-10-17T15:13:54.675Z,4.05
2022-10-17T15:16:56.861Z,5.00
2022-10-17T15:19:59.295Z,3.75
2022-10-17T15:23:02.407Z,4.60
2022-10-17T15:26:16.172Z,5.63
2022-10-17T15:29:18.766Z,5.60
2022-10-17T15:32:21.152Z,6.75
2022-10-17T15:35:26.542Z,6.82
2022-10-17T15:38:29.397Z,8.77
2022-10-17T15:41:32.816Z,6.85
2022-10-17T15:44:36.963Z,6.65
2022-10-17T15:47:39.312Z,6.13
2022-10-17T15:50:42.154Z,8.02
2022-10-17T15:53:45.798Z,7.82
2022-10-17T15:57:34.144Z,7.38
2022-10-17T16:00:38.583Z,6.30
2022-10-17T16:03:40.662Z,7.10
2022-10-17T16:06:43.309Z,10.25
2022-10-17T16:09:46.274Z,10.63
2022-10-17T16:12:51.411Z,13.00
2022-10-17T16:15:54.028Z,11.07
2022-10-17T16:18:57.724Z,9.07
2022-10-17T16:22:04.331Z,10.82
2022-10-17T16:25:19.644Z,13.43
2022-10-17T16:28:23.081Z,11.82
2022-10-17T16:31:29.483Z,13.73
2022-10-17T16:34:32.954Z,16.00
2022-10-17T16:37:38.193Z,13.55
2022-10-17T16:40:41.453Z,13.07
2022-10-17T16:43:45.517Z,13.82
2022-10-17T16:46:48.485Z,14.30
2022-10-17T16:49:51.338Z,16.38
2022-10-17T16:52:56.248Z,16.80
2022-10-17T16:56:10.209Z,13.57
2022-10-17T16:59:13.004Z,15.40
2022-10-17T17:02:24.707Z,13.90
2022-10-17T17:05:27.816Z,12.60
2022-10-17T17:08:31.745Z,13.20
2022-10-17T17:11:33.835Z,11.00
2022-10-17T17:14:36.089Z,11.82
2022-10-17T17:17:50.313Z,13.10
2022-10-17T17:21:00.193Z,12.82
2022-10-17T17:24:04.564Z,14.30
2022-10-17T17:27:08.793Z,17.73
2022-10-17T17:30:13.935Z,18.27
2022-10-17T17:33:17.890Z,18.77
2022-10-17T17:36:22.557Z,16.63
2022-10-17T17:39:24.551Z,16.58
2022-10-17T17:42:26.874Z,16.00
2022-10-17T17:45:29.449Z,17.50
2022-10-17T17:48:32.736Z,16.85
2022-10-17T17:51:34.893Z,17.17
2022-10-17T17:54:40.072Z,17.95
2022-10-17T17:57:45.817Z,16.75
2022-10-17T18:00:47.938Z,16.23
2022-10-17T18:03:52.647Z,17.67
2022-10-17T18:07:00.815Z,16.42
2022-10-17T18:10:04.438Z,17.95
2022-10-17T18:13:08.024Z,17.50
2022-10-17T18:16:17.119Z,16.48
2022-10-17T18:19:19.417Z,16.95
2022-10-17T18:22:25.385Z,16.45
2022-10-17T18:25:28.523Z,17.60
2022-10-17T18:28:30.857Z,18.33
2022-10-17T18:31:36.181Z,10.80
2022-10-17T18:34:38.414Z,18.25
2022-10-17T18:37:42.776Z,17.58
2022-10-17T18:40:47.318Z,17.73
2022-10-17T18:43:53.525Z,17.02
2022-10-17T18:46:59.856Z,17.08
2022-10-17T18:50:06.706Z,16.92
2022-10-17T18:53:09.716Z,18.10
2022-10-17T18:56:16.455Z,17.50
2022-10-17T18:59:19.387Z,17.42
2022-10-17T19:02:21.503Z,18.50
2022-10-17T19:05:24.757Z,17.08
2022-10-17T19:08:26.832Z,17.85
2022-10-17T19:11:31.968Z,17.63
2022-10-17T19:14:34.297Z,16.88
2022-10-17T19:17:38.328Z,17.08
2022-10-17T19:20:42.966Z,17.40
2022-10-17T19:23:52.997Z,18.52
2022-10-17T19:26:58.748Z,16.15
2022-10-17T19:30:01.839Z,17.33
2022-10-17T19:33:05.773Z,16.95
2022-10-17T19:36:11.411Z,17.30
2022-10-17T19:39:16.442Z,19.40
2022-10-17T19:42:19.101Z,18.33
2022-10-17T19:45:25.577Z,17.48
2022-10-17T19:48:31.529Z,17.55
2022-10-17T19:51:34.281Z,16.38
2022-10-17T19:54:36.307Z,17.88
2022-10-17T19:57:38.543Z,16.80
2022-10-17T20:00:47.482Z,14.90
2022-10-17T20:03:54.749Z,16.50
2022-10-17T20:07:00.112Z,16.23
2022-10-17T20:10:04.705Z,16.77
2022-10-17T20:13:08.611Z,16.38
2022-10-17T20:16:14.028Z,18.60
2022-10-17T20:19:16.414Z,18.90
2022-10-17T20:22:18.808Z,17.58
2022-10-17T20:25:22.643Z,15.50
2022-10-17T20:28:26.888Z,17.30
2022-10-17T20:31:29.390Z,15.93
2022-10-17T20:34:35.705Z,16.65
2022-10-17T20:37:42.375Z,16.98
2022-10-17T20:40:46.314Z,15.73
2022-10-17T20:43:51.971Z,16.88
2022-10-17T20:47:01.697Z,16.13
2022-10-17T20:50:07.642Z,16.27
2022-10-17T20:56:36.576Z,15.98
2022-10-17T20:59:38.662Z,16.15
2022-10-17T21:02:40.956Z,15.48
2022-10-17T21:05:43.376Z,15.25
2022-10-17T21:08:46.697Z,16.58
2022-10-17T21:11:51.906Z,15.13
2022-10-17T21:14:54.684Z,15.70
2022-10-17T21:17:56.764Z,15.70
2022-10-17T21:21:15.130Z,15.27
2022-10-17T21:24:19.613Z,15.43
2022-10-17T21:27:21.664Z,15.93
2022-10-17T21:30:24.393Z,15.43
2022-10-17T21:33:29.417Z,15.98
2022-10-17T21:36:32.301Z,16.23
2022-10-17T21:39:35.839Z,16.13
2022-10-17T21:42:39.185Z,16.60
2022-10-17T21:45:45.553Z,15.23
2022-10-17T21:48:49.164Z,15.60
2022-10-17T21:51:52.623Z,17.48
2022-10-17T21:54:55.957Z,16.75
2022-10-17T21:57:58.162Z,16.67
2022-10-17T22:01:09.348Z,15.70
2022-10-17T22:04:18.436Z,15.93
2022-10-17T22:07:20.613Z,17.00
2022-10-17T22:10:24.171Z,14.75
2022-10-17T22:13:26.663Z,16.65
2022-10-17T22:16:29.215Z,16.15
2022-10-17T22:19:32.405Z,16.40
2022-10-17T22:22:34.464Z,16.48
2022-10-17T22:25:40.454Z,15.75
2022-10-17T22:28:42.537Z,16.38
2022-10-17T22:31:44.953Z,14.90
2022-10-17T22:34:48.341Z,17.48
2022-10-17T22:37:52.936Z,16.20
2022-10-17T22:40:55.301Z,14.95
2022-10-17T22:43:57.582Z,16.33
2022-10-17T22:46:59.709Z,15.93
2022-10-17T22:50:01.818Z,15.82
2022-10-17T22:53:05.206Z,16.02
2022-10-17T22:56:16.647Z,16.00
2022-10-17T22:59:19.324Z,15.52
2022-10-17T23:02:24.150Z,15.02
2022-10-17T23:05:27.390Z,14.77
2022-10-17T23:08:29.628Z,15.23
2022-10-17T23:11:31.870Z,15.55
2022-10-17T23:14:37.658Z,14.50
2022-10-17T23:17:40.864Z,15.05
2022-10-17T23:20:43.428Z,15.90
2022-10-17T23:23:46.916Z,14.02
2022-10-17T23:26:49.245Z,13.23
2022-10-17T23:29:53.535Z,14.27
2022-10-17T23:32:56.762Z,14.73
2022-10-17T23:36:03.523Z,13.20
2022-10-17T23:39:07.307Z,13.93
2022-10-17T23:42:09.501Z,13.70
2022-10-17T23:45:12.752Z,11.95
2022-10-17T23:48:14.908Z,12.73
2022-10-17T23:51:17.179Z,12.55
2022-10-17T23:54:19.623Z,13.50
2022-10-17T23:57:21.747Z,13.70
